sensor_id;sensor_type;location;lat;lon;timestamp;temperature;humidity
37410;DHT22;23275;48.914;12.566;2023-02-28T00:00:16;-1.60;99.90
37410;DHT22;23275;48.914;12.566;2023-02-28T00:02:42;-1.60;99.90
37410;DHT22;23275;48.914;12.566;2023-02-28T00:05:10;-1.70;99.90
37410;DHT22;23275;48.914;12.566;2023-02-28T00:07:36;-1.70;99.90
37410;DHT22;23275;48.914;12.566;2023-02-28T00:10:02;-1.80;99.90
37410;DHT22;23275;48.914;12.566;2023-02-28T00:12:28;-1.80;99.90
37410;DHT22;23275;48.914;12.566;2023-02-28T00:14:53;-1.80;99.90
37410;DHT22;23275;48.914;12.566;2023-02-28T00:17:19;-1.80;99.90
37410;DHT22;23275;48.914;12.566;2023-02-28T00:19:47;-1.80;99.90
37410;DHT22;23275;48.914;12.566;2023-02-28T00:22:18;-1.80;99.90
37410;DHT22;23275;48.914;12.566;2023-02-28T00:24:44;-1.80;99.90
37410;DHT22;23275;48.914;12.566;2023-02-28T00:27:10;-1.80;99.90
37410;DHT22;23275;48.914;12.566;2023-02-28T00:29:36;-1.90;99.90
37410;DHT22;23275;48.914;12.566;2023-02-28T00:32:02;-1.90;99.90
37410;DHT22;23275;48.914;12.566;2023-02-28T00:34:28;-1.90;99.90
37410;DHT22;23275;48.914;12.566;2023-02-28T00:36:53;-1.90;99.90
37410;DHT22;23275;48.914;12.566;2023-02-28T00:39:19;-1.90;99.90
37410;DHT22;23275;48.914;12.566;2023-02-28T00:41:45;-1.90;99.90
37410;DHT22;23275;48.914;12.566;2023-02-28T00:44:10;-2.00;99.90
37410;DHT22;23275;48.914;12.566;2023-02-28T00:46:36;-2.00;99.90
37410;DHT22;23275;48.914;12.566;2023-02-28T00:49:02;-2.00;99.90
37410;DHT22;23275;48.914;12.566;2023-02-28T00:51:27;-2.00;99.90
37410;DHT22;23275;48.914;12.566;2023-02-28T00:53:53;-2.00;99.90
37410;DHT22;23275;48.914;12.566;2023-02-28T00:56:19;-2.10;99.90
37410;DHT22;23275;48.914;12.566;2023-02-28T00:58:44;-2.10;99.90
37410;DHT22;23275;48.914;12.566;2023-02-28T01:01:10;-2.10;99.90
37410;DHT22;23275;48.914;12.566;2023-02-28T01:03:35;-2.10;99.90
37410;DHT22;23275;48.914;12.566;2023-02-28T01:06:01;-2.20;99.90
37410;DHT22;23275;48.914;12.566;2023-02-28T01:08:27;-2.10;99.90
37410;DHT22;23275;48.914;12.566;2023-02-28T01:10:53;-2.10;99.90
37410;DHT22;23275;48.914;12.566;2023-02-28T01:13:19;-2.10;99.90
37410;DHT22;23275;48.914;12.566;2023-02-28T01:15:53;-2.10;99.90
37410;DHT22;23275;48.914;12.566;2023-02-28T01:18:20;-2.10;99.90
37410;DHT22;23275;48.914;12.566;2023-02-28T01:20:47;-2.10;99.90
37410;DHT22;23275;48.914;12.566;2023-02-28T01:23:12;-2.10;99.90
37410;DHT22;23275;48.914;12.566;2023-02-28T01:25:38;-2.10;99.90
37410;DHT22;23275;48.914;12.566;2023-02-28T01:28:04;-2.10;99.90
37410;DHT22;23275;48.914;12.566;2023-02-28T01:30:31;-2.10;99.90
37410;DHT22;23275;48.914;12.566;2023-02-28T01:32:57;-2.10;99.90
37410;DHT22;23275;48.914;12.566;2023-02-28T01:35:22;-2.20;99.90
37410;DHT22;23275;48.914;12.566;2023-02-28T01:37:48;-2.20;99.90
37410;DHT22;23275;48.914;12.566;2023-02-28T01:40:13;-2.20;99.90
37410;DHT22;23275;48.914;12.566;2023-02-28T01:42:39;-2.20;99.90
37410;DHT22;23275;48.914;12.566;2023-02-28T01:45:22;-2.20;99.90
37410;DHT22;23275;48.914;12.566;2023-02-28T01:47:51;-2.20;99.90
37410;DHT22;23275;48.914;12.566;2023-02-28T01:50:23;-2.30;99.90
37410;DHT22;23275;48.914;12.566;2023-02-28T01:52:50;-2.20;99.90
37410;DHT22;23275;48.914;12.566;2023-02-28T01:55:18;-2.30;99.90
37410;DHT22;23275;48.914;12.566;2023-02-28T01:57:56;-2.30;99.90
37410;DHT22;23275;48.914;12.566;2023-02-28T02:00:24;-2.30;99.90
37410;DHT22;23275;48.914;12.566;2023-02-28T02:02:55;-2.20;99.90
37410;DHT22;23275;48.914;12.566;2023-02-28T02:05:24;-2.20;99.90
37410;DHT22;23275;48.914;12.566;2023-02-28T02:07:55;-2.20;99.90
37410;DHT22;23275;48.914;12.566;2023-02-28T02:10:29;-2.20;99.90
37410;DHT22;23275;48.914;12.566;2023-02-28T02:15:44;-2.30;99.90
37410;DHT22;23275;48.914;12.566;2023-02-28T02:27:08;-2.30;99.90
37410;DHT22;23275;48.914;12.566;2023-02-28T02:35:35;-2.30;99.90
37410;DHT22;23275;48.914;12.566;2023-02-28T02:38:15;-2.40;99.90
37410;DHT22;23275;48.914;12.566;2023-02-28T02:41:40;-2.40;99.90
37410;DHT22;23275;48.914;12.566;2023-02-28T02:44:02;-2.40;99.90
37410;DHT22;23275;48.914;12.566;2023-02-28T02:46:36;-2.40;99.90
37410;DHT22;23275;48.914;12.566;2023-02-28T02:49:06;-2.40;99.90
37410;DHT22;23275;48.914;12.566;2023-02-28T02:51:34;-2.40;99.90
37410;DHT22;23275;48.914;12.566;2023-02-28T02:56:44;-2.40;99.90
37410;DHT22;23275;48.914;12.566;2023-02-28T02:59:13;-2.40;99.90
37410;DHT22;23275;48.914;12.566;2023-02-28T03:01:41;-2.40;99.90
37410;DHT22;23275;48.914;12.566;2023-02-28T03:04:13;-2.40;99.90
37410;DHT22;23275;48.914;12.566;2023-02-28T03:06:41;-2.40;99.90
37410;DHT22;23275;48.914;12.566;2023-02-28T03:09:06;-2.40;99.90
37410;DHT22;23275;48.914;12.566;2023-02-28T03:11:32;-2.50;99.90
37410;DHT22;23275;48.914;12.566;2023-02-28T03:16:58;-2.50;99.90
37410;DHT22;23275;48.914;12.566;2023-02-28T03:19:29;-2.40;99.90
37410;DHT22;23275;48.914;12.566;2023-02-28T03:24:41;-2.50;99.90
37410;DHT22;23275;48.914;12.566;2023-02-28T03:27:18;-2.50;99.90
37410;DHT22;23275;48.914;12.566;2023-02-28T03:30:22;-2.40;99.90
37410;DHT22;23275;48.914;12.566;2023-02-28T03:32:53;-2.50;99.90
37410;DHT22;23275;48.914;12.566;2023-02-28T03:35:45;-2.50;99.90
37410;DHT22;23275;48.914;12.566;2023-02-28T03:38:31;-2.50;99.90
37410;DHT22;23275;48.914;12.566;2023-02-28T03:41:12;-2.50;99.90
37410;DHT22;23275;48.914;12.566;2023-02-28T03:43:39;-2.50;99.90
37410;DHT22;23275;48.914;12.566;2023-02-28T03:46:09;-2.50;99.90
37410;DHT22;23275;48.914;12.566;2023-02-28T03:48:49;-2.50;99.90
37410;DHT22;23275;48.914;12.566;2023-02-28T03:51:19;-2.50;99.90
37410;DHT22;23275;48.914;12.566;2023-02-28T03:53:59;-2.50;99.90
37410;DHT22;23275;48.914;12.566;2023-02-28T03:56:38;-2.60;99.90
37410;DHT22;23275;48.914;12.566;2023-02-28T03:59:10;-2.50;99.90
37410;DHT22;23275;48.914;12.566;2023-02-28T04:01:41;-2.60;99.90
37410;DHT22;23275;48.914;12.566;2023-02-28T04:04:09;-2.60;99.90
37410;DHT22;23275;48.914;12.566;2023-02-28T04:06:35;-2.60;99.90
37410;DHT22;23275;48.914;12.566;2023-02-28T04:09:03;-2.60;99.90
37410;DHT22;23275;48.914;12.566;2023-02-28T04:11:36;-2.60;99.90
37410;DHT22;23275;48.914;12.566;2023-02-28T04:14:03;-2.60;99.90
37410;DHT22;23275;48.914;12.566;2023-02-28T04:16:30;-2.60;99.90
37410;DHT22;23275;48.914;12.566;2023-02-28T04:18:56;-2.60;99.90
37410;DHT22;23275;48.914;12.566;2023-02-28T04:21:32;-2.60;99.90
37410;DHT22;23275;48.914;12.566;2023-02-28T04:23:58;-2.60;99.90
37410;DHT22;23275;48.914;12.566;2023-02-28T04:26:33;-2.60;99.90
37410;DHT22;23275;48.914;12.566;2023-02-28T04:28:59;-2.60;99.90
37410;DHT22;23275;48.914;12.566;2023-02-28T04:31:25;-2.60;99.90
37410;DHT22;23275;48.914;12.566;2023-02-28T04:33:51;-2.60;99.90
37410;DHT22;23275;48.914;12.566;2023-02-28T04:36:17;-2.50;99.90
37410;DHT22;23275;48.914;12.566;2023-02-28T04:38:43;-2.50;99.90
37410;DHT22;23275;48.914;12.566;2023-02-28T04:41:09;-2.50;99.90
37410;DHT22;23275;48.914;12.566;2023-02-28T04:43:35;-2.50;99.90
37410;DHT22;23275;48.914;12.566;2023-02-28T04:46:03;-2.50;99.90
37410;DHT22;23275;48.914;12.566;2023-02-28T04:48:32;-2.50;99.90
37410;DHT22;23275;48.914;12.566;2023-02-28T04:51:12;-2.50;99.90
37410;DHT22;23275;48.914;12.566;2023-02-28T04:53:39;-2.60;99.90
37410;DHT22;23275;48.914;12.566;2023-02-28T04:56:06;-2.50;99.90
37410;DHT22;23275;48.914;12.566;2023-02-28T04:58:33;-2.60;99.90
37410;DHT22;23275;48.914;12.566;2023-02-28T05:01:21;-2.60;99.90
37410;DHT22;23275;48.914;12.566;2023-02-28T05:03:47;-2.60;99.90
37410;DHT22;23275;48.914;12.566;2023-02-28T05:06:13;-2.60;99.90
37410;DHT22;23275;48.914;12.566;2023-02-28T05:08:39;-2.60;99.90
37410;DHT22;23275;48.914;12.566;2023-02-28T05:11:08;-2.60;99.90
37410;DHT22;23275;48.914;12.566;2023-02-28T05:13:37;-2.60;99.90
37410;DHT22;23275;48.914;12.566;2023-02-28T05:16:02;-2.60;99.90
37410;DHT22;23275;48.914;12.566;2023-02-28T05:18:28;-2.60;99.90
37410;DHT22;23275;48.914;12.566;2023-02-28T05:20:53;-2.60;99.90
37410;DHT22;23275;48.914;12.566;2023-02-28T05:23:20;-2.60;99.90
37410;DHT22;23275;48.914;12.566;2023-02-28T05:25:47;-2.60;99.90
37410;DHT22;23275;48.914;12.566;2023-02-28T05:28:13;-2.50;99.90
37410;DHT22;23275;48.914;12.566;2023-02-28T05:30:39;-2.50;99.90
37410;DHT22;23275;48.914;12.566;2023-02-28T05:33:05;-2.50;99.90
37410;DHT22;23275;48.914;12.566;2023-02-28T05:35:30;-2.50;99.90
37410;DHT22;23275;48.914;12.566;2023-02-28T05:37:56;-2.50;99.90
37410;DHT22;23275;48.914;12.566;2023-02-28T05:40:22;-2.50;99.90
37410;DHT22;23275;48.914;12.566;2023-02-28T05:42:48;-2.50;99.90
37410;DHT22;23275;48.914;12.566;2023-02-28T05:45:15;-2.50;99.90
37410;DHT22;23275;48.914;12.566;2023-02-28T05:47:40;-2.50;99.90
37410;DHT22;23275;48.914;12.566;2023-02-28T05:50:06;-2.40;99.90
37410;DHT22;23275;48.914;12.566;2023-02-28T05:52:32;-2.40;99.90
37410;DHT22;23275;48.914;12.566;2023-02-28T05:54:57;-2.40;99.90
37410;DHT22;23275;48.914;12.566;2023-02-28T05:57:24;-2.40;99.90
37410;DHT22;23275;48.914;12.566;2023-02-28T05:59:50;-2.40;99.90
37410;DHT22;23275;48.914;12.566;2023-02-28T06:02:17;-2.40;99.90
37410;DHT22;23275;48.914;12.566;2023-02-28T06:04:43;-2.40;99.90
37410;DHT22;23275;48.914;12.566;2023-02-28T06:07:09;-2.30;99.90
37410;DHT22;23275;48.914;12.566;2023-02-28T06:09:36;-2.30;99.90
37410;DHT22;23275;48.914;12.566;2023-02-28T06:12:03;-2.30;99.90
37410;DHT22;23275;48.914;12.566;2023-02-28T06:14:31;-2.20;99.90
37410;DHT22;23275;48.914;12.566;2023-02-28T06:16:57;-2.10;99.90
37410;DHT22;23275;48.914;12.566;2023-02-28T06:19:23;-2.00;99.90
37410;DHT22;23275;48.914;12.566;2023-02-28T06:21:51;-1.90;99.90
37410;DHT22;23275;48.914;12.566;2023-02-28T06:24:18;-1.70;99.90
37410;DHT22;23275;48.914;12.566;2023-02-28T06:26:44;-1.50;99.90
37410;DHT22;23275;48.914;12.566;2023-02-28T06:29:10;-1.20;99.90
37410;DHT22;23275;48.914;12.566;2023-02-28T06:31:35;-1.10;99.90
37410;DHT22;23275;48.914;12.566;2023-02-28T06:34:01;-0.90;99.90
37410;DHT22;23275;48.914;12.566;2023-02-28T06:36:26;-0.50;99.90
37410;DHT22;23275;48.914;12.566;2023-02-28T06:38:52;-0.10;99.90
37410;DHT22;23275;48.914;12.566;2023-02-28T06:41:23;0.60;99.90
37410;DHT22;23275;48.914;12.566;2023-02-28T06:43:49;0.90;99.90
37410;DHT22;23275;48.914;12.566;2023-02-28T06:46:15;0.70;99.90
37410;DHT22;23275;48.914;12.566;2023-02-28T06:48:42;0.70;99.90
37410;DHT22;23275;48.914;12.566;2023-02-28T06:51:16;0.80;99.90
37410;DHT22;23275;48.914;12.566;2023-02-28T06:53:42;1.30;99.90
37410;DHT22;23275;48.914;12.566;2023-02-28T06:56:11;2.50;99.90
37410;DHT22;23275;48.914;12.566;2023-02-28T06:58:37;3.20;99.90
37410;DHT22;23275;48.914;12.566;2023-02-28T07:01:05;4.40;99.90
37410;DHT22;23275;48.914;12.566;2023-02-28T07:03:31;6.00;99.90
37410;DHT22;23275;48.914;12.566;2023-02-28T07:05:56;7.50;96.40
37410;DHT22;23275;48.914;12.566;2023-02-28T07:08:23;8.70;91.40
37410;DHT22;23275;48.914;12.566;2023-02-28T07:10:55;8.60;87.60
37410;DHT22;23275;48.914;12.566;2023-02-28T07:13:21;9.60;83.10
37410;DHT22;23275;48.914;12.566;2023-02-28T07:16:01;9.60;79.80
37410;DHT22;23275;48.914;12.566;2023-02-28T07:18:27;10.40;75.80
37410;DHT22;23275;48.914;12.566;2023-02-28T07:20:53;10.80;74.00
37410;DHT22;23275;48.914;12.566;2023-02-28T07:23:20;10.80;70.20
37410;DHT22;23275;48.914;12.566;2023-02-28T07:25:46;9.70;72.40
37410;DHT22;23275;48.914;12.566;2023-02-28T07:28:12;7.80;76.60
37410;DHT22;23275;48.914;12.566;2023-02-28T07:30:39;6.70;80.30
37410;DHT22;23275;48.914;12.566;2023-02-28T07:33:04;8.10;78.60
37410;DHT22;23275;48.914;12.566;2023-02-28T07:35:30;10.00;73.40
37410;DHT22;23275;48.914;12.566;2023-02-28T07:37:59;10.50;70.80
37410;DHT22;23275;48.914;12.566;2023-02-28T07:40:25;10.10;70.70
37410;DHT22;23275;48.914;12.566;2023-02-28T07:42:51;9.80;72.10
37410;DHT22;23275;48.914;12.566;2023-02-28T07:45:17;10.40;69.00
37410;DHT22;23275;48.914;12.566;2023-02-28T07:47:43;10.20;68.80
37410;DHT22;23275;48.914;12.566;2023-02-28T07:50:11;9.50;71.30
37410;DHT22;23275;48.914;12.566;2023-02-28T07:52:38;10.40;67.80
37410;DHT22;23275;48.914;12.566;2023-02-28T07:55:05;12.50;65.10
37410;DHT22;23275;48.914;12.566;2023-02-28T07:57:30;13.50;60.10
37410;DHT22;23275;48.914;12.566;2023-02-28T07:59:56;13.20;60.40
37410;DHT22;23275;48.914;12.566;2023-02-28T08:02:22;14.10;58.70
37410;DHT22;23275;48.914;12.566;2023-02-28T08:04:47;15.20;54.10
37410;DHT22;23275;48.914;12.566;2023-02-28T08:07:14;15.40;52.70
37410;DHT22;23275;48.914;12.566;2023-02-28T08:09:40;14.80;52.90
37410;DHT22;23275;48.914;12.566;2023-02-28T08:12:07;13.70;55.20
37410;DHT22;23275;48.914;12.566;2023-02-28T08:14:33;12.60;56.40
37410;DHT22;23275;48.914;12.566;2023-02-28T08:16:59;12.10;57.10
37410;DHT22;23275;48.914;12.566;2023-02-28T08:19:24;11.90;59.20
37410;DHT22;23275;48.914;12.566;2023-02-28T08:21:50;12.20;58.50
37410;DHT22;23275;48.914;12.566;2023-02-28T08:24:15;13.90;55.80
37410;DHT22;23275;48.914;12.566;2023-02-28T08:26:41;14.50;54.00
37410;DHT22;23275;48.914;12.566;2023-02-28T08:29:06;16.30;51.40
37410;DHT22;23275;48.914;12.566;2023-02-28T08:31:32;15.40;49.30
37410;DHT22;23275;48.914;12.566;2023-02-28T08:33:58;13.90;52.50
37410;DHT22;23275;48.914;12.566;2023-02-28T08:36:25;14.80;52.90
37410;DHT22;23275;48.914;12.566;2023-02-28T08:38:53;17.00;49.50
37410;DHT22;23275;48.914;12.566;2023-02-28T08:41:19;18.60;47.00
37410;DHT22;23275;48.914;12.566;2023-02-28T08:43:44;18.50;44.10
37410;DHT22;23275;48.914;12.566;2023-02-28T08:46:13;19.50;44.20
37410;DHT22;23275;48.914;12.566;2023-02-28T08:48:39;22.70;41.30
37410;DHT22;23275;48.914;12.566;2023-02-28T08:51:09;25.80;35.30
37410;DHT22;23275;48.914;12.566;2023-02-28T08:53:38;28.90;31.30
37410;DHT22;23275;48.914;12.566;2023-02-28T08:56:09;29.20;28.40
37410;DHT22;23275;48.914;12.566;2023-02-28T08:58:35;29.60;28.40
37410;DHT22;23275;48.914;12.566;2023-02-28T09:01:11;26.90;28.40
37410;DHT22;23275;48.914;12.566;2023-02-28T09:03:37;27.60;28.70
37410;DHT22;23275;48.914;12.566;2023-02-28T09:06:03;28.90;27.20
37410;DHT22;23275;48.914;12.566;2023-02-28T09:08:30;27.50;27.70
37410;DHT22;23275;48.914;12.566;2023-02-28T09:10:56;28.80;27.70
37410;DHT22;23275;48.914;12.566;2023-02-28T09:13:24;29.00;26.70
37410;DHT22;23275;48.914;12.566;2023-02-28T09:15:50;28.10;27.40
37410;DHT22;23275;48.914;12.566;2023-02-28T09:18:16;26.10;28.40
37410;DHT22;23275;48.914;12.566;2023-02-28T09:20:42;24.80;29.70
37410;DHT22;23275;48.914;12.566;2023-02-28T09:23:10;23.50;30.30
37410;DHT22;23275;48.914;12.566;2023-02-28T09:25:36;23.00;30.90
37410;DHT22;23275;48.914;12.566;2023-02-28T09:28:02;22.50;31.90
37410;DHT22;23275;48.914;12.566;2023-02-28T09:30:28;23.60;31.40
37410;DHT22;23275;48.914;12.566;2023-02-28T09:32:54;23.20;30.90
37410;DHT22;23275;48.914;12.566;2023-02-28T09:35:20;22.80;32.10
37410;DHT22;23275;48.914;12.566;2023-02-28T09:37:48;25.40;30.40
37410;DHT22;23275;48.914;12.566;2023-02-28T09:40:14;27.50;28.40
37410;DHT22;23275;48.914;12.566;2023-02-28T09:42:42;29.00;27.00
37410;DHT22;23275;48.914;12.566;2023-02-28T09:45:38;29.20;27.50
37410;DHT22;23275;48.914;12.566;2023-02-28T09:48:27;28.40;27.50
37410;DHT22;23275;48.914;12.566;2023-02-28T09:51:00;28.60;27.70
37410;DHT22;23275;48.914;12.566;2023-02-28T09:53:30;29.40;27.10
37410;DHT22;23275;48.914;12.566;2023-02-28T09:56:11;29.50;26.30
37410;DHT22;23275;48.914;12.566;2023-02-28T09:59:14;30.40;26.90
37410;DHT22;23275;48.914;12.566;2023-02-28T10:02:01;31.30;25.70
37410;DHT22;23275;48.914;12.566;2023-02-28T10:04:50;29.80;26.70
37410;DHT22;23275;48.914;12.566;2023-02-28T10:10:25;32.10;26.10
37410;DHT22;23275;48.914;12.566;2023-02-28T10:12:54;31.90;24.80
37410;DHT22;23275;48.914;12.566;2023-02-28T10:15:23;31.30;25.70
37410;DHT22;23275;48.914;12.566;2023-02-28T10:17:54;30.00;25.80
37410;DHT22;23275;48.914;12.566;2023-02-28T10:20:21;29.00;26.60
37410;DHT22;23275;48.914;12.566;2023-02-28T10:23:13;28.80;26.50
37410;DHT22;23275;48.914;12.566;2023-02-28T10:25:40;27.90;26.40
37410;DHT22;23275;48.914;12.566;2023-02-28T10:28:16;26.70;27.60
37410;DHT22;23275;48.914;12.566;2023-02-28T10:30:51;25.40;28.10
37410;DHT22;23275;48.914;12.566;2023-02-28T10:33:24;25.90;28.90
37410;DHT22;23275;48.914;12.566;2023-02-28T10:35:51;26.20;27.30
37410;DHT22;23275;48.914;12.566;2023-02-28T10:38:23;25.70;28.60
37410;DHT22;23275;48.914;12.566;2023-02-28T10:40:49;25.80;28.70
37410;DHT22;23275;48.914;12.566;2023-02-28T10:58:51;21.00;34.90
37410;DHT22;23275;48.914;12.566;2023-02-28T11:04:00;20.70;32.90
37410;DHT22;23275;48.914;12.566;2023-02-28T11:06:29;20.10;33.30
37410;DHT22;23275;48.914;12.566;2023-02-28T11:09:03;19.70;35.10
37410;DHT22;23275;48.914;12.566;2023-02-28T11:11:40;17.70;36.90
37410;DHT22;23275;48.914;12.566;2023-02-28T11:14:26;15.10;39.90
37410;DHT22;23275;48.914;12.566;2023-02-28T11:16:54;13.00;45.50
37410;DHT22;23275;48.914;12.566;2023-02-28T11:19:26;11.50;48.10
37410;DHT22;23275;48.914;12.566;2023-02-28T11:22:02;10.80;50.30
37410;DHT22;23275;48.914;12.566;2023-02-28T11:24:33;9.70;50.60
37410;DHT22;23275;48.914;12.566;2023-02-28T11:26:59;8.60;53.50
37410;DHT22;23275;48.914;12.566;2023-02-28T11:29:28;8.10;55.00
37410;DHT22;23275;48.914;12.566;2023-02-28T11:34:40;7.40;58.70
37410;DHT22;23275;48.914;12.566;2023-02-28T11:37:19;7.30;59.90
37410;DHT22;23275;48.914;12.566;2023-02-28T11:39:46;7.50;64.80
37410;DHT22;23275;48.914;12.566;2023-02-28T11:42:40;7.60;58.90
37410;DHT22;23275;48.914;12.566;2023-02-28T11:56:32;7.60;60.70
37410;DHT22;23275;48.914;12.566;2023-02-28T12:04:25;8.20;59.80
37410;DHT22;23275;48.914;12.566;2023-02-28T12:07:11;8.30;58.40
37410;DHT22;23275;48.914;12.566;2023-02-28T12:12:38;8.10;59.00
37410;DHT22;23275;48.914;12.566;2023-02-28T12:15:38;7.50;62.50
37410;DHT22;23275;48.914;12.566;2023-02-28T12:20:55;7.70;62.00
37410;DHT22;23275;48.914;12.566;2023-02-28T12:29:12;7.60;61.10
37410;DHT22;23275;48.914;12.566;2023-02-28T12:31:44;7.40;62.40
37410;DHT22;23275;48.914;12.566;2023-02-28T12:34:19;7.10;63.00
37410;DHT22;23275;48.914;12.566;2023-02-28T12:36:51;7.20;62.80
37410;DHT22;23275;48.914;12.566;2023-02-28T12:39:23;7.20;63.20
37410;DHT22;23275;48.914;12.566;2023-02-28T12:42:00;7.10;62.70
37410;DHT22;23275;48.914;12.566;2023-02-28T12:44:34;7.10;62.30
37410;DHT22;23275;48.914;12.566;2023-02-28T12:47:03;7.00;63.30
37410;DHT22;23275;48.914;12.566;2023-02-28T12:49:41;7.20;66.80
37410;DHT22;23275;48.914;12.566;2023-02-28T12:52:10;7.30;66.70
37410;DHT22;23275;48.914;12.566;2023-02-28T12:54:53;7.30;65.40
37410;DHT22;23275;48.914;12.566;2023-02-28T12:57:50;7.10;64.90
37410;DHT22;23275;48.914;12.566;2023-02-28T13:00:25;7.10;66.20
37410;DHT22;23275;48.914;12.566;2023-02-28T13:11:28;6.60;70.00
37410;DHT22;23275;48.914;12.566;2023-02-28T13:14:13;6.60;69.00
37410;DHT22;23275;48.914;12.566;2023-02-28T13:16:57;6.70;72.50
37410;DHT22;23275;48.914;12.566;2023-02-28T13:19:26;6.70;69.80
37410;DHT22;23275;48.914;12.566;2023-02-28T13:21:53;6.50;71.80
37410;DHT22;23275;48.914;12.566;2023-02-28T13:24:44;6.20;70.60
37410;DHT22;23275;48.914;12.566;2023-02-28T13:27:20;6.20;70.80
37410;DHT22;23275;48.914;12.566;2023-02-28T13:29:51;6.30;71.40
37410;DHT22;23275;48.914;12.566;2023-02-28T13:32:29;6.40;70.70
37410;DHT22;23275;48.914;12.566;2023-02-28T13:39:57;6.20;71.10
37410;DHT22;23275;48.914;12.566;2023-02-28T13:42:36;6.40;73.10
37410;DHT22;23275;48.914;12.566;2023-02-28T13:47:43;6.30;71.70
37410;DHT22;23275;48.914;12.566;2023-02-28T13:50:29;6.40;72.00
37410;DHT22;23275;48.914;12.566;2023-02-28T14:06:38;5.80;74.20
37410;DHT22;23275;48.914;12.566;2023-02-28T14:11:41;5.70;76.30
37410;DHT22;23275;48.914;12.566;2023-02-28T14:14:09;5.70;75.80
37410;DHT22;23275;48.914;12.566;2023-02-28T14:16:44;5.70;77.60
37410;DHT22;23275;48.914;12.566;2023-02-28T14:19:19;5.60;77.60
37410;DHT22;23275;48.914;12.566;2023-02-28T14:27:45;5.10;77.60
37410;DHT22;23275;48.914;12.566;2023-02-28T14:38:31;5.20;79.50
37410;DHT22;23275;48.914;12.566;2023-02-28T14:41:02;5.10;80.50
37410;DHT22;23275;48.914;12.566;2023-02-28T14:43:28;5.10;81.80
37410;DHT22;23275;48.914;12.566;2023-02-28T14:45:57;5.10;80.90
37410;DHT22;23275;48.914;12.566;2023-02-28T14:48:24;5.00;79.60
37410;DHT22;23275;48.914;12.566;2023-02-28T14:50:57;5.00;81.80
37410;DHT22;23275;48.914;12.566;2023-02-28T14:53:26;5.10;81.30
37410;DHT22;23275;48.914;12.566;2023-02-28T14:55:52;5.10;79.90
37410;DHT22;23275;48.914;12.566;2023-02-28T14:58:25;5.10;80.90
37410;DHT22;23275;48.914;12.566;2023-02-28T15:00:54;5.10;80.40
37410;DHT22;23275;48.914;12.566;2023-02-28T15:05:57;5.00;82.00
37410;DHT22;23275;48.914;12.566;2023-02-28T15:08:24;4.90;82.70
37410;DHT22;23275;48.914;12.566;2023-02-28T15:10:57;4.90;82.70
37410;DHT22;23275;48.914;12.566;2023-02-28T15:13:30;4.80;83.30
37410;DHT22;23275;48.914;12.566;2023-02-28T15:16:03;4.80;83.90
37410;DHT22;23275;48.914;12.566;2023-02-28T15:18:50;4.80;83.70
37410;DHT22;23275;48.914;12.566;2023-02-28T15:21:22;4.60;83.50
37410;DHT22;23275;48.914;12.566;2023-02-28T15:23:59;4.40;83.90
37410;DHT22;23275;48.914;12.566;2023-02-28T15:26:38;4.40;85.60
37410;DHT22;23275;48.914;12.566;2023-02-28T15:29:15;4.40;85.30
37410;DHT22;23275;48.914;12.566;2023-02-28T15:31:49;4.20;85.50
37410;DHT22;23275;48.914;12.566;2023-02-28T15:34:21;4.10;86.60
37410;DHT22;23275;48.914;12.566;2023-02-28T15:36:47;4.00;86.50
37410;DHT22;23275;48.914;12.566;2023-02-28T15:39:25;4.00;87.70
37410;DHT22;23275;48.914;12.566;2023-02-28T15:42:09;4.00;88.50
37410;DHT22;23275;48.914;12.566;2023-02-28T15:44:35;4.00;88.80
37410;DHT22;23275;48.914;12.566;2023-02-28T15:47:16;3.90;89.30
37410;DHT22;23275;48.914;12.566;2023-02-28T15:49:48;3.80;89.40
37410;DHT22;23275;48.914;12.566;2023-02-28T15:52:28;3.70;89.40
37410;DHT22;23275;48.914;12.566;2023-02-28T15:54:57;3.50;89.90
37410;DHT22;23275;48.914;12.566;2023-02-28T15:57:28;3.40;90.00
37410;DHT22;23275;48.914;12.566;2023-02-28T15:59:56;3.40;90.30
37410;DHT22;23275;48.914;12.566;2023-02-28T16:02:34;3.40;90.80
37410;DHT22;23275;48.914;12.566;2023-02-28T16:07:54;3.50;91.00
37410;DHT22;23275;48.914;12.566;2023-02-28T16:10:20;3.50;90.90
37410;DHT22;23275;48.914;12.566;2023-02-28T16:12:46;3.50;91.70
37410;DHT22;23275;48.914;12.566;2023-02-28T16:15:23;3.50;91.80
37410;DHT22;23275;48.914;12.566;2023-02-28T16:17:51;3.50;91.90
37410;DHT22;23275;48.914;12.566;2023-02-28T16:20:23;3.50;91.90
37410;DHT22;23275;48.914;12.566;2023-02-28T16:22:50;3.50;92.20
37410;DHT22;23275;48.914;12.566;2023-02-28T16:25:19;3.50;92.30
37410;DHT22;23275;48.914;12.566;2023-02-28T16:27:48;3.60;92.50
37410;DHT22;23275;48.914;12.566;2023-02-28T16:30:32;3.50;92.40
37410;DHT22;23275;48.914;12.566;2023-02-28T16:32:58;3.50;92.70
37410;DHT22;23275;48.914;12.566;2023-02-28T16:35:24;3.50;93.20
37410;DHT22;23275;48.914;12.566;2023-02-28T16:37:54;3.50;93.70
37410;DHT22;23275;48.914;12.566;2023-02-28T16:40:22;3.50;93.90
37410;DHT22;23275;48.914;12.566;2023-02-28T16:42:53;3.50;93.60
37410;DHT22;23275;48.914;12.566;2023-02-28T16:45:25;3.50;93.70
37410;DHT22;23275;48.914;12.566;2023-02-28T16:47:51;3.40;94.00
37410;DHT22;23275;48.914;12.566;2023-02-28T16:50:26;3.30;94.80
37410;DHT22;23275;48.914;12.566;2023-02-28T16:52:52;3.30;95.20
37410;DHT22;23275;48.914;12.566;2023-02-28T16:55:21;3.20;95.50
37410;DHT22;23275;48.914;12.566;2023-02-28T16:57:59;3.20;95.00
37410;DHT22;23275;48.914;12.566;2023-02-28T17:00:26;3.20;95.30
37410;DHT22;23275;48.914;12.566;2023-02-28T17:02:53;3.20;95.20
37410;DHT22;23275;48.914;12.566;2023-02-28T17:05:19;3.10;95.30
37410;DHT22;23275;48.914;12.566;2023-02-28T17:07:45;3.00;95.50
37410;DHT22;23275;48.914;12.566;2023-02-28T17:10:17;2.90;95.70
37410;DHT22;23275;48.914;12.566;2023-02-28T17:12:43;2.90;95.90
37410;DHT22;23275;48.914;12.566;2023-02-28T17:15:10;2.80;95.70
37410;DHT22;23275;48.914;12.566;2023-02-28T17:17:36;2.70;95.90
37410;DHT22;23275;48.914;12.566;2023-02-28T17:20:03;2.70;95.90
37410;DHT22;23275;48.914;12.566;2023-02-28T17:22:29;2.70;95.90
37410;DHT22;23275;48.914;12.566;2023-02-28T17:24:54;2.60;96.40
37410;DHT22;23275;48.914;12.566;2023-02-28T17:27:21;2.60;96.50
37410;DHT22;23275;48.914;12.566;2023-02-28T17:29:47;2.50;96.50
37410;DHT22;23275;48.914;12.566;2023-02-28T17:32:13;2.50;96.80
37410;DHT22;23275;48.914;12.566;2023-02-28T17:34:38;2.50;96.70
37410;DHT22;23275;48.914;12.566;2023-02-28T17:37:04;2.50;96.90
37410;DHT22;23275;48.914;12.566;2023-02-28T17:39:30;2.50;97.10
37410;DHT22;23275;48.914;12.566;2023-02-28T17:41:56;2.50;97.20
37410;DHT22;23275;48.914;12.566;2023-02-28T17:44:23;2.50;97.60
37410;DHT22;23275;48.914;12.566;2023-02-28T17:46:49;2.50;97.80
37410;DHT22;23275;48.914;12.566;2023-02-28T17:49:16;2.50;98.00